Time;durP1;ratioP1;P1;durP2;ratioP2;P2;SDS_P1;SDS_P2;PMS_P1;PMS_P2;Temp;Humidity;BMP_temperature;BMP_pressure;BME280_temperature;BME280_humidity;BME280_pressure;Samples;Min_cycle;Max_cycle;Signal;HPM_P1;HPM_P2
2022/02/08 00:02:01;;;;;;;10.68;2.28;;;3.80;99.90;;;;;;5067765;28;20078;-52
2022/02/08 00:04:28;;;;;;;5.32;1.73;;;3.80;99.90;;;;;;5067513;28;20445;-55
2022/02/08 00:06:55;;;;;;;7.82;2.05;;;3.80;99.90;;;;;;5067627;28;20598;-55
2022/02/08 00:09:22;;;;;;;7.70;1.92;;;3.70;99.90;;;;;;5068186;28;20415;-54
2022/02/08 00:11:48;;;;;;;6.20;1.77;;;3.70;99.90;;;;;;5067613;28;20404;-54
2022/02/08 00:14:13;;;;;;;6.15;1.88;;;3.70;99.90;;;;;;5068064;28;20028;-55
2022/02/08 00:16:39;;;;;;;14.32;2.17;;;3.70;99.90;;;;;;5068494;28;20619;-55
2022/02/08 00:19:05;;;;;;;9.55;1.85;;;3.70;99.90;;;;;;5067886;28;20028;-51
2022/02/08 00:21:31;;;;;;;6.93;1.63;;;3.70;99.90;;;;;;5049799;28;20032;-52
2022/02/08 00:23:57;;;;;;;11.13;2.42;;;3.70;99.90;;;;;;5067855;28;20032;-57
2022/02/08 00:26:22;;;;;;;5.57;1.90;;;3.70;99.90;;;;;;5068023;28;20412;-58
2022/02/08 00:28:48;;;;;;;7.13;2.40;;;3.70;99.90;;;;;;5067854;28;20021;-55
2022/02/08 00:31:14;;;;;;;7.32;2.35;;;3.70;99.90;;;;;;5068025;28;20111;-56
2022/02/08 00:33:39;;;;;;;9.70;2.08;;;3.60;99.90;;;;;;5066254;28;20055;-55
2022/02/08 00:36:05;;;;;;;13.63;1.80;;;3.70;99.90;;;;;;5067215;28;20074;-55
2022/02/08 00:38:33;;;;;;;9.88;1.75;;;3.60;99.90;;;;;;5067913;28;20063;-53
2022/02/08 00:41:00;;;;;;;5.32;1.35;;;3.70;99.90;;;;;;5067802;28;20481;-57
2022/02/08 00:43:32;;;;;;;9.40;1.83;;;3.70;99.90;;;;;;5072548;28;20032;-54
2022/02/08 00:48:37;;;;;;;8.82;1.88;;;3.60;99.90;;;;;;5075015;28;20115;-55
2022/02/08 00:51:03;;;;;;;7.20;1.65;;;3.60;99.90;;;;;;5073684;28;20023;-52
2022/02/08 00:53:29;;;;;;;2.72;1.33;;;3.60;99.90;;;;;;5072302;28;20024;-56
2022/02/08 00:55:54;;;;;;;10.13;2.78;;;3.60;99.90;;;;;;5074791;28;20151;-51
2022/02/08 00:58:20;;;;;;;9.07;2.03;;;3.60;99.90;;;;;;5073484;28;20048;-53
2022/02/08 01:00:45;;;;;;;7.43;2.25;;;3.50;99.90;;;;;;5073549;28;20039;-53
2022/02/08 01:03:12;;;;;;;6.95;1.75;;;3.50;99.90;;;;;;5072285;28;20029;-55
2022/02/08 01:05:44;;;;;;;4.50;1.90;;;3.60;99.90;;;;;;5054533;28;20028;-55
2022/02/08 01:08:09;;;;;;;7.72;2.58;;;3.60;99.90;;;;;;5073671;28;20074;-56
2022/02/08 01:10:38;;;;;;;7.35;2.47;;;3.50;99.90;;;;;;5073554;28;20462;-54
2022/02/08 01:13:05;;;;;;;8.13;1.98;;;3.60;99.90;;;;;;5055247;28;20075;-56
2022/02/08 01:15:31;;;;;;;5.47;1.67;;;3.60;99.90;;;;;;5068581;28;20040;-52
2022/02/08 01:17:58;;;;;;;10.13;2.47;;;3.60;99.90;;;;;;5074261;28;20028;-52
2022/02/08 01:20:33;;;;;;;9.52;1.98;;;3.60;99.90;;;;;;5073869;28;20029;-52
2022/02/08 01:23:05;;;;;;;9.13;2.53;;;3.70;99.90;;;;;;5071531;28;20020;-51
2022/02/08 01:25:37;;;;;;;9.95;1.80;;;3.70;99.90;;;;;;5071927;28;20560;-53
2022/02/08 01:28:20;;;;;;;8.25;2.17;;;3.70;99.90;;;;;;5074058;28;20392;-56
2022/02/08 01:30:57;;;;;;;8.20;2.22;;;3.70;99.90;;;;;;5071879;28;20044;-55
2022/02/08 01:38:53;;;;;;;9.82;2.63;;;3.70;99.90;;;;;;5073768;28;20085;-52
2022/02/08 01:49:58;;;;;;;7.13;2.13;;;3.80;99.90;;;;;;5071877;28;20032;-54
2022/02/08 01:52:01;;;;;;;7.82;2.03;;;3.90;99.90;;;;;;5060133;28;20300;-55
2022/02/08 01:54:27;;;;;;;12.70;2.65;;;3.80;99.90;;;;;;5069375;28;20025;-53
2022/02/08 01:56:53;;;;;;;10.25;3.13;;;3.80;99.90;;;;;;5051991;28;20398;-56
2022/02/08 01:59:20;;;;;;;8.93;2.33;;;3.80;99.90;;;;;;5049696;28;20162;-55
2022/02/08 02:01:46;;;;;;;12.63;2.83;;;3.80;99.90;;;;;;5068459;28;20539;-55
2022/02/08 02:04:12;;;;;;;12.77;3.10;;;3.80;99.90;;;;;;5068849;28;20033;-54
2022/02/08 02:06:39;;;;;;;8.40;3.35;;;3.80;99.90;;;;;;5069781;28;20032;-57
2022/02/08 02:09:07;;;;;;;10.75;3.58;;;3.80;99.90;;;;;;5069679;28;20520;-56
2022/02/08 02:11:33;;;;;;;8.98;3.17;;;3.70;99.90;;;;;;5069482;28;20060;-56
2022/02/08 02:14:00;;;;;;;6.32;3.00;;;3.70;99.90;;;;;;5069426;28;20060;-56
2022/02/08 02:16:54;;;;;;;13.23;3.85;;;3.70;99.90;;;;;;5051648;28;20036;-52
2022/02/08 02:19:21;;;;;;;13.18;3.85;;;3.70;99.90;;;;;;5051194;28;20662;-57
2022/02/08 02:21:46;;;;;;;13.02;3.17;;;3.70;99.90;;;;;;5068639;28;20024;-53
2022/02/08 02:24:12;;;;;;;15.57;4.53;;;3.70;99.90;;;;;;5069113;28;20074;-54
2022/02/08 02:26:38;;;;;;;10.38;4.22;;;3.70;99.90;;;;;;5050141;28;20025;-55
2022/02/08 02:29:03;;;;;;;9.48;5.18;;;3.60;99.90;;;;;;5069453;28;20430;-54
2022/02/08 02:31:29;;;;;;;8.90;4.05;;;3.60;99.90;;;;;;5052011;28;20051;-54
2022/02/08 02:33:54;;;;;;;14.35;4.18;;;3.60;99.90;;;;;;5069585;28;20021;-53
2022/02/08 02:36:20;;;;;;;15.13;4.82;;;3.60;99.90;;;;;;5070313;28;20507;-55
2022/02/08 02:38:46;;;;;;;13.18;4.80;;;3.60;99.90;;;;;;5068891;28;20138;-54
2022/02/08 02:41:12;;;;;;;12.77;4.55;;;3.60;99.90;;;;;;5067926;28;20092;-54
2022/02/08 02:43:40;;;;;;;16.45;5.45;;;3.60;99.90;;;;;;5069442;28;20024;-52
2022/02/08 02:46:05;;;;;;;12.50;6.32;;;3.60;99.90;;;;;;5063614;23;20045;-50
2022/02/08 02:48:31;;;;;;;13.68;6.00;;;3.70;99.90;;;;;;5048637;28;20234;-50
2022/02/08 02:50:56;;;;;;;17.95;6.22;;;3.60;99.90;;;;;;5048898;28;20040;-53
2022/02/08 02:53:26;;;;;;;13.77;5.07;;;3.70;99.90;;;;;;5049292;28;20536;-51
2022/02/08 02:55:52;;;;;;;12.10;5.60;;;3.70;99.90;;;;;;5022102;28;20034;-50
2022/02/08 02:58:20;;;;;;;17.83;6.22;;;3.80;99.90;;;;;;5030138;28;20428;-52
2022/02/08 03:01:04;;;;;;;10.13;5.65;;;3.70;99.90;;;;;;5029908;28;20030;-52
2022/02/08 03:17:35;;;;;;;17.98;8.50;;;3.90;99.90;;;;;;5029388;28;20404;-51
2022/02/08 03:20:00;;;;;;;20.13;8.18;;;4.00;99.90;;;;;;5011169;28;20038;-53
2022/02/08 03:22:26;;;;;;;16.40;7.25;;;4.00;99.90;;;;;;5010590;28;20033;-52
2022/02/08 03:24:52;;;;;;;17.05;7.85;;;4.00;99.90;;;;;;5029323;28;20401;-54
2022/02/08 03:27:17;;;;;;;16.42;7.93;;;4.00;99.90;;;;;;5028894;28;20045;-50
2022/02/08 03:29:44;;;;;;;19.63;9.27;;;4.10;99.90;;;;;;5029449;28;20064;-49
2022/02/08 03:32:09;;;;;;;17.92;9.00;;;4.10;99.90;;;;;;5028309;28;20072;-51
2022/02/08 03:34:35;;;;;;;21.55;9.52;;;4.10;99.90;;;;;;5029770;28;20497;-52
2022/02/08 03:37:00;;;;;;;17.63;8.48;;;4.20;99.90;;;;;;5029288;28;20126;-52
2022/02/08 03:39:37;;;;;;;11.73;7.28;;;4.20;99.90;;;;;;5029346;28;20116;-49
2022/02/08 03:42:16;;;;;;;19.95;8.55;;;4.20;99.90;;;;;;5028153;28;20068;-48
2022/02/08 03:44:46;;;;;;;23.08;9.38;;;4.20;99.90;;;;;;5028556;28;20025;-49
2022/02/08 03:47:12;;;;;;;19.70;9.15;;;4.30;99.90;;;;;;5028868;28;20042;-50
2022/02/08 03:49:40;;;;;;;17.85;8.18;;;4.30;99.90;;;;;;5028728;28;20048;-53
2022/02/08 03:52:06;;;;;;;16.73;8.88;;;4.40;99.90;;;;;;5027369;28;20025;-54
2022/02/08 03:54:36;;;;;;;16.67;10.27;;;4.40;99.90;;;;;;5028797;28;20029;-50
2022/02/08 03:57:04;;;;;;;20.23;8.93;;;4.40;99.90;;;;;;5027764;28;20112;-53
2022/02/08 03:59:30;;;;;;;17.42;9.52;;;4.50;99.90;;;;;;5028663;28;20034;-52
2022/02/08 04:04:36;;;;;;;19.25;10.40;;;4.50;99.90;;;;;;5027967;28;20420;-51
2022/02/08 04:07:10;;;;;;;19.15;9.70;;;4.60;99.90;;;;;;5028946;28;20112;-53
2022/02/08 04:09:36;;;;;;;23.65;11.13;;;4.60;99.90;;;;;;5028369;28;20037;-52
2022/02/08 04:12:07;;;;;;;18.70;10.13;;;4.60;99.90;;;;;;5028457;28;20371;-52
2022/02/08 04:14:56;;;;;;;17.75;10.13;;;4.60;99.90;;;;;;5011429;28;20493;-53
2022/02/08 04:41:29;;;;;;;21.60;11.65;;;4.90;99.90;;;;;;5028186;28;20365;-53
2022/02/08 04:44:12;;;;;;;20.27;12.55;;;4.90;99.90;;;;;;5010194;28;20033;-51
2022/02/08 04:49:06;;;;;;;20.42;12.43;;;5.00;99.90;;;;;;5028662;28;20041;-51
2022/02/08 04:51:38;;;;;;;22.30;12.07;;;5.00;99.90;;;;;;5028465;28;20033;-50
2022/02/08 04:59:25;;;;;;;24.98;12.25;;;5.10;99.90;;;;;;5027925;28;20829;-50
2022/02/08 05:42:06;;;;;;;20.65;13.43;;;5.60;99.90;;;;;;5031874;28;20620;-53
2022/02/08 05:44:38;;;;;;;24.08;13.98;;;5.60;99.90;;;;;;5031408;28;20501;-52
2022/02/08 05:47:04;;;;;;;23.33;15.32;;;5.60;99.90;;;;;;5031359;28;20033;-51
2022/02/08 05:49:41;;;;;;;20.88;13.25;;;5.60;99.90;;;;;;5031069;28;20394;-50
2022/02/08 05:54:40;;;;;;;22.42;14.23;;;5.60;99.90;;;;;;5029911;28;20493;-49
2022/02/08 05:57:08;;;;;;;21.27;14.15;;;5.70;99.90;;;;;;5030820;28;20033;-51
2022/02/08 05:59:33;;;;;;;23.40;14.95;;;5.70;99.90;;;;;;5031097;28;20025;-52
2022/02/08 06:01:59;;;;;;;27.75;15.00;;;5.70;99.90;;;;;;5028905;28;20026;-51
2022/02/08 06:04:24;;;;;;;25.10;15.23;;;5.80;99.90;;;;;;5029946;28;20523;-50
2022/02/08 06:06:50;;;;;;;29.30;16.38;;;5.70;99.90;;;;;;5030535;28;20030;-51
2022/02/08 06:09:17;;;;;;;30.60;16.42;;;5.80;99.90;;;;;;5030650;28;20060;-51
2022/02/08 06:11:43;;;;;;;21.42;13.75;;;5.80;99.90;;;;;;5030820;28;20018;-50
2022/02/08 06:14:09;;;;;;;25.55;16.58;;;5.80;99.90;;;;;;5029103;28;20521;-50
2022/02/08 06:16:35;;;;;;;25.08;16.05;;;5.80;99.90;;;;;;5031111;28;20021;-54
2022/02/08 06:19:05;;;;;;;23.85;15.82;;;5.90;99.90;;;;;;5030215;28;20084;-51
2022/02/08 06:21:32;;;;;;;31.40;16.48;;;5.90;99.90;;;;;;5030505;28;20032;-51
2022/02/08 06:23:57;;;;;;;28.20;16.63;;;5.90;99.90;;;;;;5030504;28;20036;-49
2022/02/08 06:26:24;;;;;;;24.90;15.95;;;5.90;99.90;;;;;;5030670;28;20025;-49
2022/02/08 06:29:00;;;;;;;26.17;15.20;;;5.90;99.90;;;;;;5030521;28;20028;-50
2022/02/08 06:31:26;;;;;;;;;;;6.00;99.90;;;;;;5030241;28;20033;-51
2022/02/08 06:33:51;;;;;;;29.07;16.77;;;6.00;99.90;;;;;;5030467;28;19916;-50
2022/02/08 06:36:17;;;;;;;31.75;16.25;;;6.00;99.90;;;;;;5030636;28;20136;-53
2022/02/08 06:38:42;;;;;;;28.48;16.27;;;6.00;99.90;;;;;;5029312;28;20044;-55
2022/02/08 06:41:09;;;;;;;29.45;16.50;;;6.10;99.90;;;;;;5030115;28;20071;-50
2022/02/08 06:43:35;;;;;;;31.75;16.80;;;6.10;99.90;;;;;;5030141;28;20026;-49
2022/02/08 06:46:00;;;;;;;24.95;15.10;;;6.10;99.90;;;;;;5030124;28;20041;-53
2022/02/08 06:48:26;;;;;;;28.20;16.05;;;6.10;99.90;;;;;;5030106;28;20033;-50
2022/02/08 06:50:52;;;;;;;23.50;15.73;;;6.20;99.90;;;;;;5028997;28;20041;-51
2022/02/08 06:53:18;;;;;;;28.08;15.38;;;6.20;99.90;;;;;;5030222;28;20041;-49
2022/02/08 06:55:44;;;;;;;20.98;15.02;;;6.20;99.90;;;;;;5030508;28;20014;-53
2022/02/08 06:58:12;;;;;;;30.25;15.52;;;6.20;99.90;;;;;;5012142;28;20040;-50
2022/02/08 07:00:40;;;;;;;27.17;14.65;;;6.30;99.90;;;;;;5030216;28;20116;-51
2022/02/08 07:03:07;;;;;;;28.45;15.25;;;6.30;99.90;;;;;;5029532;28;20025;-50
2022/02/08 07:05:33;;;;;;;24.23;15.32;;;6.30;99.90;;;;;;5029102;28;20039;-52
2022/02/08 07:07:59;;;;;;;29.67;15.80;;;6.30;99.90;;;;;;5028530;28;20064;-51
2022/02/08 07:10:27;;;;;;;33.25;15.80;;;6.40;99.90;;;;;;5031820;28;20029;-50
2022/02/08 07:12:53;;;;;;;30.08;15.93;;;6.40;99.90;;;;;;5029676;28;20047;-48
2022/02/08 07:15:19;;;;;;;27.60;15.18;;;6.40;99.90;;;;;;5029511;28;20374;-51
2022/02/08 07:17:45;;;;;;;26.17;16.00;;;6.40;99.90;;;;;;5029450;28;20029;-53
2022/02/08 07:20:11;;;;;;;26.98;15.88;;;6.40;99.90;;;;;;5030324;28;20492;-51
2022/02/08 07:22:37;;;;;;;27.15;13.98;;;6.40;99.90;;;;;;5029815;28;20201;-55
2022/02/08 07:25:03;;;;;;;24.00;15.38;;;6.40;99.90;;;;;;5029989;28;20037;-55
2022/02/08 07:27:30;;;;;;;33.17;17.13;;;6.50;99.90;;;;;;5029867;28;20027;-52
2022/02/08 07:29:56;;;;;;;29.13;16.10;;;6.40;99.90;;;;;;5029928;28;20037;-53
2022/02/08 07:32:33;;;;;;;32.05;15.50;;;6.40;99.90;;;;;;5029360;28;20408;-50
2022/02/08 07:35:14;;;;;;;25.20;14.80;;;6.40;99.90;;;;;;5029641;28;20014;-50
2022/02/08 07:37:55;;;;;;;26.17;14.90;;;6.40;99.90;;;;;;5028961;28;20026;-50
2022/02/08 07:42:53;;;;;;;26.30;15.00;;;6.50;99.90;;;;;;5028956;28;20091;-50
2022/02/08 07:45:19;;;;;;;29.95;14.15;;;6.50;99.90;;;;;;5028479;28;20030;-51
2022/02/08 07:47:45;;;;;;;28.33;16.75;;;6.50;99.90;;;;;;5029071;28;20029;-52
2022/02/08 07:50:13;;;;;;;26.83;15.18;;;6.60;99.90;;;;;;5029011;28;20100;-54
2022/02/08 07:52:39;;;;;;;25.00;15.70;;;6.70;99.90;;;;;;5028120;28;20013;-51
2022/02/08 07:55:05;;;;;;;28.33;16.90;;;6.60;99.90;;;;;;5028063;28;20040;-53
2022/02/08 07:57:30;;;;;;;31.05;14.93;;;6.70;99.90;;;;;;5026372;28;20072;-51
2022/02/08 07:59:56;;;;;;;29.35;16.90;;;6.70;99.90;;;;;;5029039;28;20061;-52
2022/02/08 08:02:21;;;;;;;29.88;15.40;;;6.80;99.90;;;;;;5028008;28;20037;-51
2022/02/08 08:04:47;;;;;;;27.02;15.18;;;6.80;99.90;;;;;;5028018;28;20029;-51
2022/02/08 08:07:12;;;;;;;33.67;16.17;;;6.80;99.90;;;;;;5028906;28;20037;-52
2022/02/08 08:09:41;;;;;;;26.35;15.02;;;6.80;99.90;;;;;;5010269;28;20033;-50
2022/02/08 08:12:10;;;;;;;23.83;15.52;;;6.80;99.90;;;;;;5028051;28;20026;-53
2022/02/08 08:14:35;;;;;;;28.35;14.73;;;6.80;99.90;;;;;;5028064;28;20021;-51
2022/02/08 08:17:55;;;;;;;28.48;15.45;;;6.90;99.90;;;;;;5028063;28;20358;-50
2022/02/08 08:19:50;;;;;;;27.13;13.80;;;6.90;99.90;;;;;;5019255;28;20037;-50
2022/02/08 08:22:19;;;;;;;21.08;14.15;;;7.00;99.90;;;;;;5028165;28;20612;-54
2022/02/08 08:24:46;;;;;;;24.27;13.57;;;7.00;99.90;;;;;;5028392;28;20037;-55
2022/02/08 08:27:14;;;;;;;22.35;13.15;;;7.00;99.90;;;;;;5028420;28;20262;-53
2022/02/08 08:29:40;;;;;;;23.42;13.73;;;7.00;99.90;;;;;;5028098;28;20033;-52
2022/02/08 08:32:07;;;;;;;18.58;13.13;;;7.00;99.90;;;;;;5027552;28;20049;-55
2022/02/08 08:34:34;;;;;;;23.50;13.13;;;7.10;99.90;;;;;;5028149;28;20116;-52
2022/02/08 08:37:00;;;;;;;21.52;12.55;;;7.10;99.90;;;;;;5027249;28;20090;-52
2022/02/08 08:39:32;;;;;;;23.45;12.75;;;7.10;99.90;;;;;;5027002;28;20093;-53
2022/02/08 08:50:18;;;;;;;17.30;11.48;;;7.20;99.90;;;;;;5088632;28;20081;-57
2022/02/08 08:52:45;;;;;;;19.70;11.30;;;7.20;99.90;;;;;;5087762;28;20069;-55
2022/02/08 08:55:11;;;;;;;16.67;10.25;;;7.30;99.90;;;;;;5088108;28;20021;-54
2022/02/08 08:57:37;;;;;;;17.13;10.80;;;7.30;99.90;;;;;;5088056;28;20081;-55
2022/02/08 09:00:08;;;;;;;19.25;10.32;;;7.30;99.90;;;;;;5087353;28;20099;-52
2022/02/08 09:02:33;;;;;;;15.50;10.60;;;7.40;99.90;;;;;;5089016;28;20043;-50
2022/02/08 09:05:01;;;;;;;17.05;9.68;;;7.40;99.90;;;;;;5091275;28;20024;-55
2022/02/08 09:07:27;;;;;;;18.45;10.00;;;7.40;99.90;;;;;;5092647;28;20624;-53
2022/02/08 09:09:58;;;;;;;16.90;9.40;;;7.40;99.90;;;;;;5091553;28;20059;-50
2022/02/08 09:21:12;;;;;;;13.85;8.70;;;7.60;99.90;;;;;;5092449;28;20020;-58
2022/02/08 09:30:34;;;;;;;14.13;7.55;;;7.70;99.90;;;;;;5092156;28;20085;-55
2022/02/08 09:33:00;;;;;;;11.95;8.77;;;7.70;99.90;;;;;;5092363;28;20012;-54
2022/02/08 09:35:25;;;;;;;14.18;7.80;;;7.70;99.90;;;;;;5092185;28;20039;-56
2022/02/08 09:37:51;;;;;;;14.65;7.80;;;7.70;99.90;;;;;;5091559;28;20069;-56
2022/02/08 09:40:19;;;;;;;10.10;6.55;;;7.70;99.90;;;;;;5092294;28;20557;-54
2022/02/08 09:42:46;;;;;;;10.68;6.78;;;7.70;99.90;;;;;;5091907;28;20025;-51
2022/02/08 09:45:16;;;;;;;15.23;7.75;;;7.70;99.90;;;;;;5092089;28;20035;-55
2022/02/08 09:50:26;;;;;;;9.52;6.05;;;7.80;99.90;;;;;;5092094;28;20051;-51
2022/02/08 09:52:56;;;;;;;11.43;6.60;;;7.80;99.90;;;;;;5091722;28;20020;-58
2022/02/08 09:55:23;;;;;;;12.50;6.38;;;7.80;99.90;;;;;;5091689;28;20020;-58
2022/02/08 09:57:49;;;;;;;10.50;5.82;;;7.80;99.90;;;;;;5091100;28;20012;-54
2022/02/08 10:00:17;;;;;;;12.07;5.57;;;7.90;99.90;;;;;;5091065;28;20020;-57
2022/02/08 10:02:42;;;;;;;8.40;6.20;;;7.80;99.90;;;;;;5091628;28;20024;-54
2022/02/08 10:05:08;;;;;;;10.00;5.75;;;7.90;99.90;;;;;;5091750;28;20501;-56
2022/02/08 10:07:36;;;;;;;15.23;6.25;;;7.90;99.90;;;;;;5091727;28;20020;-57
2022/02/08 10:10:05;;;;;;;9.80;5.97;;;7.90;99.90;;;;;;5091004;28;20844;-55
2022/02/08 10:23:56;;;;;;;8.23;5.20;;;7.90;99.90;;;;;;5090531;28;20020;-57
2022/02/08 10:26:36;;;;;;;12.80;5.88;;;7.90;99.90;;;;;;5090619;28;20035;-57
2022/02/08 10:32:18;;;;;;;11.88;5.78;;;7.90;99.90;;;;;;5090486;28;20057;-54
2022/02/08 10:37:43;;;;;;;11.30;5.60;;;8.00;99.90;;;;;;5088512;28;20085;-53
2022/02/08 10:40:18;;;;;;;11.27;5.25;;;8.00;99.90;;;;;;5090098;28;20051;-57
2022/02/08 10:42:51;;;;;;;8.52;4.95;;;8.00;99.90;;;;;;5086297;28;20024;-56
2022/02/08 10:45:29;;;;;;;10.57;5.18;;;8.00;99.90;;;;;;5086957;28;20031;-56
2022/02/08 10:47:56;;;;;;;7.78;4.40;;;8.00;99.90;;;;;;5090312;28;20463;-56
2022/02/08 10:50:23;;;;;;;9.88;5.28;;;8.00;99.90;;;;;;5087887;28;20036;-53
2022/02/08 10:52:49;;;;;;;10.95;5.18;;;8.00;99.90;;;;;;5086773;28;20073;-51
2022/02/08 10:55:25;;;;;;;8.10;5.05;;;8.00;99.90;;;;;;5084674;28;20028;-56
2022/02/08 10:58:11;;;;;;;;;;;8.00;99.90;;;;;;5085628;28;20031;-54
2022/02/08 11:03:11;;;;;;;9.60;4.82;;;8.00;99.90;;;;;;5089550;28;20131;-53
2022/02/08 11:08:22;;;;;;;10.15;5.32;;;8.10;99.90;;;;;;5090539;28;20024;-53
2022/02/08 11:16:07;;;;;;;12.13;5.43;;;8.10;99.90;;;;;;5090613;28;20013;-55
2022/02/08 11:21:37;;;;;;;10.25;4.25;;;8.10;99.90;;;;;;5089423;28;20108;-54
2022/02/08 11:27:20;;;;;;;6.55;3.85;;;8.10;99.90;;;;;;5032466;28;20055;-57
2022/02/08 11:29:59;;;;;;;6.07;4.05;;;8.10;99.90;;;;;;5089997;28;20046;-51
2022/02/08 11:49:14;;;;;;;6.20;3.13;;;8.10;99.90;;;;;;5078606;28;20036;-52
2022/02/08 11:54:36;;;;;;;6.47;2.88;;;8.20;99.90;;;;;;5078657;28;20016;-55
2022/02/08 11:59:54;;;;;;;4.65;3.30;;;8.20;99.90;;;;;;5078837;28;20069;-52
2022/02/08 12:07:21;;;;;;;5.07;2.58;;;8.20;99.90;;;;;;5078152;28;20032;-51
2022/02/08 12:09:55;;;;;;;4.85;2.75;;;8.20;99.90;;;;;;5078818;28;20387;-49
2022/02/08 12:32:11;;;;;;;6.82;2.10;;;8.20;99.90;;;;;;5060549;28;20573;-56
2022/02/08 12:34:59;;;;;;;3.67;2.27;;;8.30;99.90;;;;;;5078025;28;20027;-60
2022/02/08 12:48:34;;;;;;;3.90;2.38;;;8.30;99.90;;;;;;5078081;28;20081;-52
2022/02/08 12:54:45;;;;;;;7.50;2.10;;;8.30;99.90;;;;;;5088329;28;20031;-54
2022/02/08 14:01:45;;;;;;;4.55;1.55;;;8.10;99.90;;;;;;5080363;28;20051;-55
2022/02/08 14:12:09;;;;;;;2.63;1.38;;;8.10;99.90;;;;;;5080404;28;20052;-55
2022/02/08 14:22:34;;;;;;;5.30;1.48;;;8.10;99.90;;;;;;5079906;28;20030;-56
2022/02/08 14:30:31;;;;;;;2.60;1.02;;;8.10;99.90;;;;;;5079520;28;20035;-56
2022/02/08 14:36:08;;;;;;;5.07;1.30;;;8.10;99.90;;;;;;5079864;28;20031;-58
2022/02/08 15:08:18;;;;;;;1.75;1.00;;;8.00;99.90;;;;;;5017530;28;20193;-53
2022/02/08 15:13:12;;;;;;;3.40;1.30;;;8.00;99.90;;;;;;5063376;28;20060;-56
2022/02/08 15:18:05;;;;;;;3.25;1.83;;;8.10;99.90;;;;;;5060197;28;20025;-54
2022/02/08 15:20:31;;;;;;;3.88;1.35;;;8.10;99.90;;;;;;5060636;28;20048;-56
2022/02/08 15:22:59;;;;;;;1.60;1.08;;;8.10;99.90;;;;;;5060480;28;20774;-54
2022/02/08 15:25:27;;;;;;;2.42;1.23;;;8.00;99.90;;;;;;5060893;28;20100;-52
2022/02/08 15:27:53;;;;;;;2.47;1.20;;;8.00;99.90;;;;;;5060596;28;20484;-52
2022/02/08 15:30:19;;;;;;;3.08;0.93;;;8.00;99.90;;;;;;5061317;28;20033;-53
2022/02/08 15:32:46;;;;;;;3.58;1.88;;;8.00;99.90;;;;;;5060508;28;20926;-55
2022/02/08 15:35:11;;;;;;;4.60;1.85;;;8.00;99.90;;;;;;5062041;28;20091;-53
2022/02/08 15:37:37;;;;;;;2.72;1.98;;;8.00;99.90;;;;;;5061284;28;20523;-52
2022/02/08 15:40:06;;;;;;;7.15;3.42;;;8.00;99.90;;;;;;5061447;28;20029;-54
2022/02/08 15:42:32;;;;;;;10.30;7.13;;;7.90;99.90;;;;;;5061164;28;20025;-53
2022/02/08 15:45:06;;;;;;;22.08;18.30;;;7.90;99.90;;;;;;5061332;28;20027;-56
2022/02/08 15:47:31;;;;;;;5.97;3.65;;;7.90;99.90;;;;;;5061508;28;20060;-53
2022/02/08 15:50:05;;;;;;;6.28;3.38;;;7.90;99.90;;;;;;5061970;28;20122;-54
2022/02/08 15:55:33;;;;;;;5.70;3.53;;;7.90;99.90;;;;;;5046269;28;20240;-53
2022/02/08 16:09:07;;;;;;;5.55;2.22;;;7.80;99.90;;;;;;5059780;28;20074;-53
2022/02/08 16:14:10;;;;;;;5.78;2.63;;;7.80;99.90;;;;;;5058910;28;20507;-53
2022/02/08 16:16:51;;;;;;;6.80;2.50;;;7.80;99.90;;;;;;5059429;28;20431;-53
2022/02/08 16:19:28;;;;;;;9.02;3.10;;;7.80;99.90;;;;;;5059893;28;20455;-53
2022/02/08 16:24:37;;;;;;;9.57;3.50;;;7.80;99.90;;;;;;5061707;28;20030;-53
2022/02/08 16:33:04;;;;;;;7.25;2.85;;;7.70;99.90;;;;;;5061444;28;20086;-53
2022/02/08 16:57:10;;;;;;;8.02;4.05;;;7.60;99.90;;;;;;5060004;28;20032;-52
2022/02/08 16:59:37;;;;;;;11.48;4.13;;;7.60;99.90;;;;;;5062262;28;20053;-50
2022/02/08 17:02:06;;;;;;;10.18;3.90;;;7.60;99.90;;;;;;5062671;28;20025;-55
2022/02/08 17:04:32;;;;;;;11.13;4.35;;;7.60;99.90;;;;;;5061873;28;20024;-53
2022/02/08 17:06:58;;;;;;;11.98;4.18;;;7.60;99.90;;;;;;5061250;28;20083;-56
2022/02/08 17:09:44;;;;;;;12.23;4.03;;;7.60;99.90;;;;;;5062148;28;20037;-53
2022/02/08 17:12:55;;;;;;;12.37;3.53;;;7.60;99.90;;;;;;5060923;28;20025;-53
2022/02/08 17:45:20;;;;;;;12.35;4.18;;;7.50;99.90;;;;;;5062650;28;20122;-53
2022/02/08 17:47:43;;;;;;;7.90;3.60;;;7.50;99.90;;;;;;5061391;28;20499;-53
2022/02/08 17:50:13;;;;;;;13.02;3.92;;;7.50;99.90;;;;;;5063060;28;20033;-52
2022/02/08 17:52:40;;;;;;;10.27;2.95;;;7.50;99.90;;;;;;5062620;28;20028;-55
2022/02/08 17:55:07;;;;;;;5.65;3.10;;;7.50;99.90;;;;;;5063602;28;20476;-53
2022/02/08 17:57:33;;;;;;;7.30;2.95;;;7.50;99.90;;;;;;5063993;28;20044;-53
2022/02/08 17:59:59;;;;;;;10.82;3.20;;;7.50;99.90;;;;;;5061595;28;20029;-52
2022/02/08 18:02:25;;;;;;;6.75;2.50;;;7.50;99.90;;;;;;5063488;28;20051;-51
2022/02/08 18:04:53;;;;;;;8.52;3.50;;;7.50;99.90;;;;;;5062739;28;20449;-55
2022/02/08 18:07:21;;;;;;;4.93;3.05;;;7.50;99.90;;;;;;5062874;28;20082;-52
2022/02/08 18:09:50;;;;;;;6.03;2.92;;;7.50;99.90;;;;;;5062841;28;20676;-52
2022/02/08 18:12:16;;;;;;;7.47;3.30;;;7.50;99.90;;;;;;5063028;28;20024;-53
2022/02/08 18:14:47;;;;;;;7.68;3.40;;;7.50;99.90;;;;;;5064482;28;20142;-53
2022/02/08 18:17:18;;;;;;;6.40;3.83;;;7.50;99.90;;;;;;5063764;28;20032;-53
2022/02/08 18:19:51;;;;;;;6.57;4.13;;;7.50;99.90;;;;;;5064735;28;20020;-52
2022/02/08 18:22:37;;;;;;;4.78;3.63;;;7.50;99.90;;;;;;5063054;28;20036;-52
2022/02/08 19:03:34;;;;;;;6.70;5.25;;;7.60;99.90;;;;;;5062831;28;20035;-52
2022/02/08 19:14:03;;;;;;;7.38;6.03;;;7.60;99.90;;;;;;5060372;28;20553;-51
2022/02/08 19:16:33;;;;;;;9.32;5.88;;;7.60;99.90;;;;;;5060475;28;20056;-54
2022/02/08 19:23:50;;;;;;;10.07;5.88;;;7.60;99.90;;;;;;5062066;28;20021;-52
2022/02/08 19:26:17;;;;;;;4.97;4.10;;;7.60;99.90;;;;;;5061363;28;20480;-56
2022/02/08 19:28:44;;;;;;;7.20;4.57;;;7.60;99.90;;;;;;5061497;28;20016;-51
2022/02/08 19:31:09;;;;;;;6.35;4.00;;;7.60;99.90;;;;;;5061331;28;20029;-54
2022/02/08 19:33:35;;;;;;;8.45;5.60;;;7.60;99.90;;;;;;5061245;28;20024;-51
2022/02/08 19:36:01;;;;;;;6.13;5.15;;;7.60;99.90;;;;;;5059233;28;20094;-54
2022/02/08 19:38:27;;;;;;;7.03;4.93;;;7.60;99.90;;;;;;5060413;28;20028;-55
2022/02/08 19:40:54;;;;;;;4.03;3.58;;;7.60;99.90;;;;;;5060250;28;20356;-52
2022/02/08 19:43:20;;;;;;;3.95;2.83;;;7.60;99.90;;;;;;5059665;28;20035;-54
2022/02/08 19:45:46;;;;;;;3.55;3.15;;;7.60;99.90;;;;;;5059836;28;20021;-55
2022/02/08 19:48:14;;;;;;;3.78;2.78;;;7.60;99.90;;;;;;5058356;28;20025;-56
2022/02/08 19:50:42;;;;;;;3.15;2.13;;;7.60;99.90;;;;;;5059829;28;20039;-54
2022/02/08 19:53:09;;;;;;;3.60;2.60;;;7.70;99.90;;;;;;5060903;28;20021;-53
2022/02/08 19:58:11;;;;;;;2.10;1.90;;;7.60;99.90;;;;;;5058521;28;20071;-52
2022/02/08 20:00:38;;;;;;;2.88;1.60;;;7.60;99.90;;;;;;5061720;28;20028;-51
2022/02/08 20:03:06;;;;;;;1.83;1.50;;;7.60;99.90;;;;;;5062592;28;20104;-51
2022/02/08 20:05:33;;;;;;;1.65;1.00;;;7.60;99.90;;;;;;5059363;28;20033;-53
2022/02/08 20:08:00;;;;;;;1.55;0.80;;;7.60;99.90;;;;;;5058745;28;20115;-54
2022/02/08 20:10:26;;;;;;;2.95;1.67;;;7.60;99.90;;;;;;5060121;28;20504;-52
2022/02/08 20:12:53;;;;;;;1.75;0.88;;;7.60;99.90;;;;;;5059722;28;20634;-53
2022/02/08 20:15:19;;;;;;;2.55;1.00;;;7.50;99.90;;;;;;5060303;28;20408;-55
2022/02/08 20:17:45;;;;;;;1.55;1.25;;;7.50;99.90;;;;;;5043385;28;20479;-54
2022/02/08 20:20:14;;;;;;;3.00;1.27;;;7.50;99.90;;;;;;5062196;28;20020;-55
2022/02/08 20:22:45;;;;;;;2.10;1.10;;;7.50;99.90;;;;;;5061809;28;20082;-52
2022/02/08 20:25:12;;;;;;;0.85;0.57;;;7.50;99.90;;;;;;5060739;28;20028;-53
2022/02/08 20:27:52;;;;;;;0.90;0.80;;;7.50;99.90;;;;;;5059260;28;20032;-54
2022/02/08 20:30:24;;;;;;;1.40;0.77;;;7.50;99.90;;;;;;5059334;28;20476;-52
2022/02/08 20:32:52;;;;;;;1.23;1.15;;;7.40;99.90;;;;;;5058782;28;20420;-52
2022/02/08 20:35:19;;;;;;;1.48;1.30;;;7.40;99.90;;;;;;5059599;28;20068;-53
2022/02/08 20:37:45;;;;;;;2.20;1.63;;;7.50;99.90;;;;;;5059043;28;20032;-52
2022/02/08 20:40:11;;;;;;;1.35;1.20;;;7.40;99.90;;;;;;5058664;28;20412;-54
2022/02/08 20:42:36;;;;;;;1.60;1.50;;;7.40;99.90;;;;;;5040473;28;20029;-53
2022/02/08 20:45:03;;;;;;;2.60;1.88;;;7.40;99.90;;;;;;5060041;28;20678;-57
2022/02/08 20:47:29;;;;;;;2.55;2.35;;;7.50;99.90;;;;;;5080031;23;20044;-57
2022/02/08 20:50:09;;;;;;;3.25;2.92;;;7.50;99.90;;;;;;5090002;28;20047;-56
2022/02/08 20:52:40;;;;;;;3.45;3.15;;;7.50;99.90;;;;;;5106412;28;20168;-55
2022/02/08 20:55:09;;;;;;;3.97;3.58;;;7.50;99.90;;;;;;5107311;28;20016;-58
2022/02/08 20:57:37;;;;;;;4.63;3.03;;;7.60;99.90;;;;;;5098097;28;20103;-57
2022/02/08 21:00:11;;;;;;;4.07;3.63;;;7.60;99.90;;;;;;5090346;28;20763;-54
2022/02/08 21:02:41;;;;;;;4.97;4.18;;;7.60;99.90;;;;;;5089906;28;20104;-59